Time;durP1;ratioP1;P1;durP2;ratioP2;P2;SDS_P1;SDS_P2;PMS_P1;PMS_P2;Temp;Humidity;BMP_temperature;BMP_pressure;BME280_temperature;BME280_humidity;BME280_pressure;Samples;Min_cycle;Max_cycle;Signal;HPM_P1;HPM_P2
2021/04/17 00:01:11;;;;;;;7.07;3.20;;;8.30;60.80;;;7.58;45.59;100860.25;5050261;28;20033;-52
2021/04/17 00:03:37;;;;;;;5.07;2.90;;;8.10;60.80;;;7.53;45.91;100860.63;5051010;28;20168;-53
2021/04/17 00:06:03;;;;;;;5.22;3.30;;;8.10;61.00;;;7.56;45.40;100857.78;5050485;28;20036;-48
2021/04/17 00:08:29;;;;;;;6.60;3.20;;;8.10;60.60;;;7.46;45.92;100859.44;5029615;28;20037;-51
2021/04/17 00:10:55;;;;;;;3.95;2.65;;;8.00;61.30;;;7.62;45.44;100864.28;5028697;28;20091;-53
2021/04/17 00:13:21;;;;;;;4.28;2.75;;;8.10;60.50;;;7.61;45.22;100862.63;5050932;28;20614;-50
2021/04/17 00:15:48;;;;;;;6.13;3.45;;;8.10;60.40;;;7.57;45.47;100863.78;5050797;28;20052;-51
2021/04/17 00:18:14;;;;;;;7.72;3.05;;;8.10;60.60;;;7.47;45.51;100853.31;5050176;28;20074;-48
2021/04/17 00:20:40;;;;;;;6.15;2.97;;;8.00;60.80;;;7.44;45.42;100850.94;5050724;28;20040;-55
2021/04/17 00:23:06;;;;;;;6.13;3.05;;;8.00;60.80;;;7.27;46.21;100847.00;5050713;28;20039;-50
2021/04/17 00:25:32;;;;;;;7.07;3.20;;;7.90;61.50;;;7.09;47.60;100855.34;5050527;28;20354;-49
2021/04/17 00:27:58;;;;;;;4.90;3.10;;;7.70;62.40;;;6.91;47.61;100853.13;5049944;28;20047;-52
2021/04/17 00:30:24;;;;;;;5.88;3.90;;;7.60;63.10;;;6.91;47.73;100841.94;5050490;28;20029;-55
2021/04/17 00:32:50;;;;;;;5.13;2.88;;;7.50;62.80;;;6.97;47.41;100831.97;5050553;28;20045;-54
2021/04/17 00:35:16;;;;;;;6.72;3.28;;;7.50;63.00;;;6.97;47.26;100831.97;5050651;28;20033;-54
2021/04/17 00:37:43;;;;;;;5.18;3.00;;;7.50;62.90;;;7.04;47.03;100839.28;5049828;28;20102;-48
2021/04/17 00:40:09;;;;;;;5.22;2.97;;;7.50;62.80;;;6.94;47.05;100839.97;5050465;28;20485;-50
2021/04/17 00:42:35;;;;;;;8.25;3.10;;;7.50;63.30;;;6.97;47.10;100829.38;5050371;28;20040;-50
2021/04/17 00:45:04;;;;;;;3.42;2.28;;;7.50;62.80;;;6.87;47.74;100833.56;5032618;28;20101;-52
2021/04/17 00:47:29;;;;;;;4.80;3.10;;;7.50;63.40;;;6.65;48.42;100823.94;5049438;28;20052;-53
2021/04/17 00:49:55;;;;;;;3.72;2.38;;;7.30;64.50;;;6.50;49.65;100819.06;5032744;28;20322;-56
2021/04/17 00:52:21;;;;;;;3.78;2.38;;;7.10;65.10;;;6.33;50.49;100815.91;5050179;28;20189;-48
2021/04/17 00:54:47;;;;;;;6.32;2.97;;;7.00;66.50;;;6.28;50.38;100817.16;5050276;28;20365;-49
2021/04/17 00:57:13;;;;;;;4.93;2.75;;;6.90;66.90;;;6.15;51.55;100811.19;5048208;28;20071;-50
2021/04/17 00:59:39;;;;;;;4.25;2.05;;;6.80;67.90;;;6.08;51.91;100813.41;5049886;28;20136;-50
2021/04/17 01:02:05;;;;;;;6.35;2.90;;;6.70;68.60;;;6.14;51.55;100815.56;5049724;28;20032;-53
2021/04/17 01:04:39;;;;;;;3.75;2.53;;;6.70;68.10;;;6.18;51.27;100803.19;5049712;28;20188;-50
2021/04/17 01:07:22;;;;;;;4.85;2.67;;;6.70;68.00;;;6.28;50.35;100811.97;5031816;28;20033;-53
2021/04/17 01:10:03;;;;;;;2.85;2.05;;;6.80;67.60;;;6.29;50.98;100806.69;5048807;28;20080;-51
2021/04/17 01:12:32;;;;;;;5.78;3.20;;;6.80;67.60;;;6.28;50.08;100802.44;5049401;28;20063;-48
2021/04/17 01:14:59;;;;;;;4.72;2.80;;;6.80;67.20;;;6.35;49.64;100802.84;5032162;28;20036;-50
2021/04/17 01:17:25;;;;;;;6.22;2.65;;;7.00;66.90;;;6.25;50.50;100804.44;5030943;28;20033;-52
2021/04/17 01:20:25;;;;;;;4.38;2.83;;;6.80;67.80;;;6.09;51.58;100801.28;5048922;28;20037;-48
2021/04/17 01:23:03;;;;;;;4.82;1.90;;;6.70;67.90;;;5.95;52.24;100800.47;5033022;28;20037;-49
2021/04/17 01:25:47;;;;;;;4.68;3.00;;;6.60;68.90;;;5.83;52.92;100806.47;5049813;28;20048;-49
2021/04/17 01:28:16;;;;;;;4.80;2.65;;;6.50;70.20;;;5.73;53.28;100802.03;5032905;28;20055;-53
2021/04/17 01:30:44;;;;;;;4.25;2.80;;;6.30;70.80;;;5.73;52.94;100810.63;5030998;28;20094;-51
2021/04/17 01:33:10;;;;;;;4.93;3.00;;;6.30;70.80;;;5.82;52.68;100811.75;5030984;28;20033;-55
2021/04/17 01:35:37;;;;;;;4.68;2.70;;;6.40;70.30;;;5.95;51.74;100805.66;5049321;28;20144;-51
2021/04/17 01:38:51;;;;;;;3.55;2.35;;;6.50;69.30;;;5.94;52.72;100804.00;5031471;28;20084;-48
2021/04/17 01:41:33;;;;;;;6.78;2.80;;;6.50;69.50;;;6.03;51.04;100801.72;5048302;28;20036;-52
2021/04/17 01:44:04;;;;;;;5.68;2.78;;;6.50;68.80;;;6.27;49.85;100799.97;5031987;28;20472;-56
2021/04/17 01:46:34;;;;;;;3.60;2.55;;;6.70;67.30;;;6.55;49.42;100798.84;5029233;28;20042;-50
2021/04/17 01:49:05;;;;;;;5.65;2.80;;;7.00;66.30;;;6.37;50.31;100798.38;5049523;28;20033;-53
2021/04/17 01:51:32;;;;;;;4.05;2.72;;;7.00;67.00;;;6.26;50.32;100795.72;5029682;28;20128;-53
2021/04/17 01:54:05;;;;;;;3.63;2.70;;;6.90;67.60;;;6.39;50.05;100796.53;5049339;28;20114;-47
2021/04/17 01:56:32;;;;;;;3.80;2.33;;;6.90;66.60;;;6.23;50.62;100793.34;5028002;28;20029;-48
2021/04/17 01:59:01;;;;;;;5.15;3.08;;;6.80;67.70;;;6.38;49.96;100794.03;5011505;28;20037;-51
2021/04/17 02:01:27;;;;;;;5.63;2.42;;;6.90;66.80;;;6.19;50.36;100791.91;5045583;28;20033;-51
2021/04/17 02:03:53;;;;;;;5.72;2.90;;;6.80;67.60;;;6.05;50.89;100781.75;5048249;28;20064;-53
2021/04/17 02:06:19;;;;;;;7.18;2.70;;;6.70;68.20;;;5.89;51.55;100784.56;5048732;28;20071;-57
2021/04/17 02:08:45;;;;;;;3.85;2.17;;;6.50;69.10;;;5.76;52.07;100778.56;5048492;28;20036;-52
2021/04/17 02:11:11;;;;;;;7.13;2.72;;;6.40;69.70;;;5.76;51.86;100774.22;5048387;28;20029;-52
2021/04/17 02:13:39;;;;;;;4.55;2.47;;;6.40;69.30;;;5.82;51.98;100781.53;5048140;28;20037;-51
2021/04/17 02:16:13;;;;;;;5.00;2.28;;;6.40;69.10;;;5.57;53.53;100773.84;5031126;28;20036;-55
2021/04/17 02:19:04;;;;;;;3.70;2.55;;;6.30;71.40;;;5.57;53.15;100779.00;5048168;28;20126;-52
2021/04/17 02:21:43;;;;;;;5.22;2.67;;;6.20;70.70;;;5.65;52.95;100777.56;5048141;28;20029;-53
2021/04/17 02:24:10;;;;;;;6.35;2.75;;;6.20;70.70;;;5.48;53.87;100779.63;5048359;28;20044;-49
2021/04/17 02:26:38;;;;;;;4.05;2.38;;;6.10;73.10;;;5.59;53.65;100769.41;5030035;28;20051;-51
2021/04/17 02:29:07;;;;;;;5.28;2.72;;;6.20;72.20;;;5.48;53.73;100770.13;5027052;28;20398;-52
2021/04/17 02:31:33;;;;;;;4.80;3.00;;;6.10;72.40;;;5.46;54.11;100764.22;5030960;28;20025;-49
2021/04/17 02:34:01;;;;;;;4.05;2.30;;;6.00;72.80;;;5.45;53.81;100760.00;5047492;28;20127;-46
2021/04/17 02:36:28;;;;;;;7.93;2.97;;;6.00;72.60;;;5.55;53.33;100761.03;5048064;28;20071;-54
2021/04/17 02:38:54;;;;;;;4.22;2.80;;;6.10;72.10;;;5.50;53.17;100759.69;5048603;28;20124;-54
2021/04/17 02:41:20;;;;;;;4.72;3.40;;;6.10;72.10;;;5.70;52.37;100758.28;5425842;22;20127;-51
2021/04/17 02:43:47;;;;;;;5.65;2.72;;;6.20;71.50;;;5.53;53.78;100755.13;4915196;22;20437;-50
2021/04/17 02:46:14;;;;;;;4.75;2.15;;;6.10;73.00;;;5.45;53.58;100760.00;5107581;28;20054;-53
2021/04/17 02:48:40;;;;;;;4.18;2.25;;;6.10;72.60;;;5.33;54.25;100750.47;5108641;28;20031;-47
2021/04/17 02:51:07;;;;;;;3.15;2.47;;;6.00;73.30;;;5.33;53.83;100753.88;5108226;28;20035;-53
2021/04/17 02:53:33;;;;;;;4.93;2.80;;;5.90;72.90;;;5.65;52.42;100741.38;5106358;28;20400;-53
2021/04/17 02:55:59;;;;;;;5.15;3.03;;;6.00;71.70;;;5.74;52.43;100739.88;5087959;28;20031;-52
2021/04/17 02:58:25;;;;;;;4.03;2.63;;;6.20;71.20;;;5.78;52.18;100735.31;5087708;28;20097;-52
2021/04/17 03:00:52;;;;;;;7.10;2.97;;;6.30;71.10;;;5.97;51.45;100736.53;5087962;28;20035;-52
2021/04/17 03:03:18;;;;;;;4.07;2.55;;;6.40;70.00;;;5.92;51.45;100738.63;5087776;28;20031;-56
2021/04/17 03:05:45;;;;;;;5.20;3.15;;;6.50;70.40;;;5.67;52.66;100729.13;5086284;28;20134;-52
2021/04/17 03:08:11;;;;;;;8.57;3.38;;;6.30;71.40;;;5.89;51.69;100732.84;5087957;28;20032;-54
2021/04/17 03:10:37;;;;;;;8.20;3.92;;;6.40;70.50;;;5.93;51.96;100723.94;5087849;28;20064;-51
2021/04/17 03:13:07;;;;;;;8.13;4.75;;;6.50;70.30;;;6.07;51.07;100726.38;5087746;28;20059;-53
2021/04/17 03:15:34;;;;;;;9.70;4.13;;;6.50;69.60;;;6.13;50.70;100731.13;5087583;28;20036;-50
2021/04/17 03:18:01;;;;;;;11.55;5.63;;;6.60;69.00;;;6.38;49.79;100731.94;5087840;28;20032;-50
2021/04/17 03:20:27;;;;;;;6.88;4.47;;;6.80;67.90;;;6.39;49.57;100720.63;5088801;28;20127;-52
2021/04/17 03:22:53;;;;;;;6.97;4.03;;;6.80;67.40;;;6.42;49.83;100718.66;5087407;28;20186;-49
2021/04/17 03:25:19;;;;;;;5.43;4.03;;;6.90;67.30;;;6.42;49.83;100715.25;5087489;28;20111;-54
2021/04/17 03:27:45;;;;;;;8.60;4.00;;;6.90;67.20;;;6.63;48.94;100711.06;5087426;28;20024;-51
2021/04/17 03:30:16;;;;;;;6.32;3.08;;;7.10;66.40;;;6.68;48.54;100716.72;5095231;28;20035;-53
2021/04/17 03:32:43;;;;;;;6.70;3.30;;;7.20;65.80;;;6.67;48.51;100725.44;5107507;28;20174;-48
2021/04/17 03:35:12;;;;;;;5.13;3.17;;;7.20;65.70;;;6.60;48.75;100725.09;5108284;28;20141;-54
2021/04/17 03:37:39;;;;;;;7.25;3.50;;;7.20;66.00;;;6.58;48.99;100724.38;5107761;28;20429;-54
2021/04/17 03:40:09;;;;;;;5.20;2.80;;;7.10;66.00;;;6.55;48.96;100722.00;5104393;28;20054;-54
2021/04/17 03:42:36;;;;;;;5.45;2.80;;;7.10;66.10;;;6.48;49.15;100719.97;5087085;28;20101;-51
2021/04/17 03:45:04;;;;;;;6.18;3.20;;;7.00;66.30;;;6.43;49.54;100722.91;5087319;28;20107;-49
2021/04/17 03:47:30;;;;;;;6.00;3.08;;;7.00;66.60;;;6.44;49.64;100721.13;5087450;28;20036;-47
2021/04/17 03:49:56;;;;;;;3.65;2.67;;;6.90;66.50;;;6.43;49.52;100722.91;5088314;28;20455;-51
2021/04/17 03:52:22;;;;;;;5.68;3.10;;;7.00;66.60;;;6.41;49.61;100713.59;5087406;28;20056;-54
2021/04/17 03:54:48;;;;;;;6.38;3.42;;;6.90;66.50;;;6.41;49.70;100726.53;5087269;28;20424;-52
2021/04/17 03:57:14;;;;;;;4.53;3.00;;;7.00;66.50;;;6.45;49.53;100722.78;5087029;28;20115;-52
2021/04/17 03:59:40;;;;;;;5.20;3.20;;;7.00;66.30;;;6.38;49.56;100725.00;5086990;28;20134;-49
2021/04/17 04:02:06;;;;;;;5.15;3.55;;;7.00;66.80;;;6.27;49.79;100722.34;5104377;28;20138;-48
2021/04/17 04:04:32;;;;;;;4.68;3.60;;;6.80;67.00;;;6.14;50.72;100725.00;5107396;28;20527;-50
2021/04/17 04:06:58;;;;;;;7.53;3.55;;;6.80;67.60;;;6.10;50.86;100726.16;5107227;28;20081;-51
2021/04/17 04:09:24;;;;;;;5.43;2.92;;;6.70;67.90;;;6.21;50.05;100717.59;5107208;28;20187;-52
2021/04/17 04:11:50;;;;;;;6.05;2.80;;;6.70;67.70;;;6.25;49.85;100725.03;5097160;28;20036;-47
2021/04/17 04:14:16;;;;;;;7.18;2.95;;;6.70;67.80;;;6.20;50.13;100727.13;5086874;28;20039;-50
2021/04/17 04:16:41;;;;;;;5.75;3.28;;;6.80;67.60;;;6.12;50.66;100729.47;5087179;28;20036;-53
2021/04/17 04:19:07;;;;;;;5.22;3.03;;;6.70;67.70;;;6.01;51.09;100729.41;5087195;28;20384;-51
2021/04/17 04:21:33;;;;;;;9.52;3.17;;;6.60;68.20;;;5.99;50.80;100732.09;5086853;28;20035;-52
2021/04/17 04:23:59;;;;;;;5.57;3.10;;;6.60;68.30;;;6.14;50.52;100727.59;5086986;28;20067;-46
2021/04/17 04:26:25;;;;;;;5.10;2.45;;;6.70;67.90;;;6.17;50.37;100721.34;5087182;28;20028;-44
2021/04/17 04:28:51;;;;;;;5.85;3.50;;;6.70;67.60;;;6.12;50.51;100733.81;5086736;28;20028;-48
2021/04/17 04:31:17;;;;;;;5.82;3.15;;;6.70;68.10;;;6.08;51.29;100735.78;5086809;28;20035;-51
2021/04/17 04:33:43;;;;;;;6.95;3.90;;;6.70;68.80;;;5.95;51.95;100741.00;5086829;28;20122;-56
2021/04/17 04:36:09;;;;;;;6.55;3.30;;;6.60;69.50;;;5.94;52.12;100747.09;5087214;28;20082;-51
2021/04/17 04:38:35;;;;;;;6.22;2.95;;;6.60;70.30;;;5.90;52.69;100744.84;5086752;28;20355;-50
2021/04/17 04:41:01;;;;;;;6.22;3.28;;;6.50;70.40;;;5.84;53.09;100746.06;5087023;28;20111;-51
2021/04/17 04:43:27;;;;;;;4.80;2.63;;;6.50;70.70;;;5.88;52.46;100742.34;5087404;28;20052;-51
2021/04/17 04:45:53;;;;;;;5.20;2.72;;;6.50;70.80;;;5.89;52.75;100738.00;5090582;28;20043;-52
2021/04/17 04:48:19;;;;;;;8.32;3.70;;;6.60;71.00;;;5.96;52.71;100734.06;5104853;28;20558;-51
2021/04/17 04:50:45;;;;;;;4.40;3.03;;;6.60;70.90;;;6.06;53.28;100735.06;5110807;28;20110;-55
2021/04/17 04:53:11;;;;;;;5.35;2.92;;;6.70;71.80;;;6.12;53.81;100741.56;5110617;28;20110;-52
2021/04/17 04:55:37;;;;;;;16.35;10.20;;;6.80;72.50;;;6.18;53.96;100733.34;5110129;28;20156;-48
2021/04/17 04:58:03;;;;;;;14.95;7.55;;;7.00;72.70;;;6.29;53.70;100744.59;5108464;28;20051;-52
2021/04/17 05:00:29;;;;;;;9.07;5.70;;;7.10;72.70;;;6.35;54.00;100747.66;5108414;28;20036;-53
2021/04/17 05:02:55;;;;;;;10.25;5.13;;;7.10;72.80;;;6.35;53.93;100734.72;5110359;28;20035;-52
2021/04/17 05:05:21;;;;;;;6.18;4.15;;;7.20;72.20;;;6.71;52.69;100736.38;5110278;28;20127;-54
2021/04/17 05:07:47;;;;;;;8.80;5.55;;;7.40;70.60;;;7.02;52.23;100730.59;5110131;28;20046;-51
2021/04/17 05:10:13;;;;;;;9.05;5.43;;;7.80;70.20;;;7.07;52.50;100733.66;5109888;28;20032;-50
2021/04/17 05:12:39;;;;;;;4.20;3.13;;;8.00;70.80;;;7.24;52.90;100735.78;5092084;28;20479;-52
2021/04/17 05:15:07;;;;;;;5.90;4.10;;;8.20;71.30;;;7.61;52.72;100726.00;5090007;28;20127;-50
2021/04/17 05:17:33;;;;;;;6.03;4.47;;;8.70;70.30;;;8.09;51.37;100733.47;5089813;28;20036;-55
2021/04/17 05:19:59;;;;;;;5.80;3.83;;;9.30;68.60;;;8.69;50.24;100728.66;5089889;28;20032;-54
2021/04/17 05:22:25;;;;;;;7.65;3.50;;;10.10;65.60;;;8.98;49.28;100727.06;5067728;28;20123;-53
2021/04/17 05:24:52;;;;;;;5.93;3.75;;;10.60;63.60;;;9.48;48.70;100720.19;5098344;28;20024;-50
2021/04/17 05:27:19;;;;;;;4.47;3.00;;;11.10;63.10;;;9.92;47.69;100718.94;5090306;28;20046;-54
2021/04/17 05:29:45;;;;;;;4.65;3.50;;;11.50;61.90;;;10.11;47.58;100720.78;5100669;28;20550;-53
2021/04/17 05:32:11;;;;;;;6.00;3.25;;;11.90;60.20;;;10.06;46.59;100720.34;5092104;28;20538;-53
2021/04/17 05:34:37;;;;;;;12.68;3.50;;;11.80;59.10;;;10.12;46.71;100722.41;5091810;22;20103;-50
2021/04/17 05:37:04;;;;;;;5.65;2.88;;;11.70;59.70;;;10.50;46.46;100728.63;5069017;28;20073;-49
2021/04/17 05:39:29;;;;;;;4.68;2.80;;;12.10;60.00;;;10.63;46.26;100730.00;5068598;28;20894;-51
2021/04/17 05:41:55;;;;;;;3.95;3.25;;;12.40;58.50;;;11.03;45.09;100725.53;5068799;28;20032;-54
2021/04/17 05:44:22;;;;;;;5.03;3.47;;;12.80;57.00;;;11.64;43.38;100728.47;5068206;28;20064;-58
2021/04/17 05:46:49;;;;;;;5.68;3.20;;;13.40;55.50;;;12.39;41.66;100731.72;5068851;28;20028;-52
2021/04/17 05:49:15;;;;;;;5.97;3.58;;;14.30;53.40;;;12.68;40.56;100737.53;5068882;28;20035;-48
2021/04/17 05:51:43;;;;;;;5.85;3.60;;;15.00;50.80;;;12.82;40.22;100726.50;5069194;28;20036;-56
2021/04/17 05:54:11;;;;;;;5.03;4.07;;;15.20;50.10;;;12.82;40.32;100731.75;5067713;28;20048;-53
2021/04/17 05:56:38;;;;;;;3.97;3.20;;;15.40;49.80;;;12.84;40.31;100727.19;5068775;28;20028;-51
2021/04/17 05:59:05;;;;;;;8.38;3.40;;;15.30;49.60;;;13.04;40.34;100722.59;5068509;28;20101;-51
2021/04/17 06:01:32;;;;;;;5.47;3.78;;;15.40;49.90;;;13.28;39.81;100727.97;5068812;28;20380;-53
2021/04/17 06:03:58;;;;;;;4.28;3.55;;;15.80;48.80;;;13.56;39.14;100735.66;5068100;28;20028;-47
2021/04/17 06:06:24;;;;;;;5.50;3.33;;;16.20;48.30;;;13.82;38.77;100730.31;5068189;28;20071;-53
2021/04/17 06:08:50;;;;;;;5.15;3.88;;;16.60;46.90;;;14.29;37.69;100722.72;5068469;28;20078;-51
2021/04/17 06:11:16;;;;;;;3.70;3.13;;;17.30;45.50;;;14.35;37.19;100718.63;5068432;28;20036;-51
2021/04/17 06:13:42;;;;;;;5.10;3.60;;;17.60;44.40;;;15.14;36.11;100731.88;5068648;28;20387;-52
2021/04/17 06:16:09;;;;;;;4.75;3.25;;;18.20;43.80;;;15.05;36.00;100732.91;5067417;28;20028;-51
2021/04/17 06:18:36;;;;;;;5.43;3.58;;;18.50;42.30;;;15.45;35.39;100731.97;5068075;28;20040;-55
2021/04/17 06:21:05;;;;;;;5.03;2.90;;;18.90;42.40;;;15.83;34.74;100730.34;5068161;28;20040;-57
2021/04/17 06:23:32;;;;;;;3.72;2.95;;;19.60;41.30;;;16.36;33.97;100738.41;5068292;28;20429;-50
2021/04/17 06:25:58;;;;;;;4.13;3.70;;;20.40;40.00;;;16.56;33.28;100729.03;5067761;28;20033;-49
2021/04/17 06:28:24;;;;;;;3.75;2.97;;;21.10;38.90;;;16.41;33.06;100722.91;5068154;28;20036;-50
2021/04/17 06:30:50;;;;;;;3.13;2.83;;;21.20;37.60;;;15.90;33.74;100733.91;5068024;28;20036;-51
2021/04/17 06:33:16;;;;;;;4.13;2.95;;;20.50;37.80;;;16.78;32.38;100732.66;5067837;28;20514;-50
2021/04/17 06:35:42;;;;;;;4.38;2.58;;;21.00;38.20;;;17.34;31.69;100725.19;5067560;28;20058;-53
2021/04/17 06:38:09;;;;;;;3.65;3.28;;;21.90;37.10;;;18.02;30.64;100716.88;5067599;28;20108;-45
2021/04/17 06:40:36;;;;;;;4.55;2.55;;;22.80;36.00;;;18.44;29.62;100724.00;5067655;28;20036;-48
2021/04/17 06:43:04;;;;;;;6.10;2.83;;;23.60;34.90;;;18.77;28.67;100718.22;5068001;28;20021;-48
2021/04/17 06:45:34;;;;;;;5.18;2.88;;;24.20;33.70;;;18.85;28.22;100721.53;5067832;28;20044;-51
2021/04/17 06:48:07;;;;;;;3.42;2.63;;;24.20;32.90;;;18.97;27.53;100720.97;5067095;28;20040;-52
2021/04/17 06:50:38;;;;;;;4.65;3.03;;;24.30;32.20;;;18.04;28.28;100714.88;5050340;28;20503;-51
2021/04/17 06:53:08;;;;;;;4.95;3.15;;;23.20;32.50;;;18.15;28.23;100710.94;5067028;28;20117;-50
2021/04/17 06:55:34;;;;;;;4.43;2.53;;;22.30;33.90;;;17.97;28.68;100713.19;5064666;28;20444;-53
2021/04/17 06:58:01;;;;;;;4.07;2.90;;;21.30;35.60;;;16.43;30.31;100707.78;5066128;28;20081;-50
2021/04/17 07:00:27;;;;;;;3.10;2.63;;;19.20;37.80;;;14.85;32.88;100711.44;5066246;28;20063;-46
2021/04/17 07:02:53;;;;;;;4.25;3.05;;;16.90;41.30;;;13.91;35.46;100711.03;5063591;28;20052;-46
2021/04/17 07:05:20;;;;;;;3.28;2.92;;;15.60;44.50;;;13.83;35.16;100708.41;5058008;28;20056;-44
2021/04/17 07:07:46;;;;;;;4.00;2.80;;;15.10;45.10;;;13.58;34.63;100710.94;5064253;28;20535;-49
2021/04/17 07:10:14;;;;;;;4.15;2.53;;;14.60;44.60;;;13.29;34.86;100721.75;5066489;28;20036;-50
2021/04/17 07:12:44;;;;;;;2.97;2.53;;;14.30;45.10;;;13.47;34.25;100720.88;5065216;28;20123;-48
2021/04/17 07:15:13;;;;;;;3.10;2.80;;;14.10;45.80;;;13.44;34.10;100711.53;5066610;28;20044;-50
2021/04/17 07:17:39;;;;;;;3.60;2.85;;;14.10;45.40;;;13.64;34.11;100706.88;5065702;28;20040;-50
2021/04/17 07:20:15;;;;;;;4.43;2.42;;;14.20;45.80;;;13.52;34.04;100708.97;5064938;28;20151;-52
2021/04/17 07:22:42;;;;;;;3.65;2.05;;;14.20;45.40;;;13.75;33.63;100700.50;5063307;28;20028;-51
2021/04/17 07:25:08;;;;;;;4.93;2.95;;;14.30;45.10;;;13.17;33.92;100715.19;5065101;28;20112;-52
2021/04/17 07:27:49;;;;;;;3.80;2.30;;;13.90;44.70;;;12.99;32.97;100710.94;5047555;28;20119;-49
2021/04/17 07:30:15;;;;;;;2.85;2.40;;;13.80;45.20;;;13.43;34.36;100712.50;5064653;28;20037;-50
2021/04/17 07:33:01;;;;;;;3.78;2.20;;;14.00;46.30;;;14.09;33.32;100705.69;5065275;28;20047;-51
2021/04/17 07:35:34;;;;;;;5.13;2.27;;;14.70;45.20;;;14.61;32.55;100706.25;5065509;28;20773;-47
2021/04/17 07:38:12;;;;;;;2.90;2.30;;;15.20;45.00;;;14.79;32.21;100708.66;5064866;28;20075;-52
2021/04/17 07:40:40;;;;;;;3.85;2.10;;;15.30;44.20;;;14.70;32.49;100701.78;5064650;28;20131;-52
2021/04/17 07:43:07;;;;;;;7.35;2.17;;;15.30;44.30;;;14.71;32.43;100708.66;5060618;28;20425;-49
2021/04/17 07:45:40;;;;;;;2.97;2.15;;;15.30;44.10;;;14.47;31.88;100701.63;5063488;28;20377;-49
2021/04/17 07:48:29;;;;;;;2.22;1.90;;;15.10;43.90;;;14.03;32.31;100708.94;5059565;28;20036;-50
2021/04/17 07:50:56;;;;;;;3.63;1.85;;;14.90;43.90;;;13.42;32.78;100708.25;5061342;28;20159;-49
2021/04/17 07:53:44;;;;;;;2.28;1.90;;;14.40;44.30;;;13.11;32.97;100707.09;5063320;28;20768;-50
2021/04/17 07:56:34;;;;;;;5.50;2.50;;;13.90;45.00;;;13.13;34.11;100702.53;5061011;28;20113;-49
2021/04/17 07:59:07;;;;;;;3.10;2.10;;;13.70;46.00;;;12.93;34.19;100700.13;5064666;28;20071;-51
2021/04/17 08:01:34;;;;;;;3.80;1.92;;;13.40;46.10;;;13.38;33.17;100699.06;5060843;28;20167;-48
2021/04/17 08:04:02;;;;;;;2.38;2.03;;;13.80;45.60;;;13.07;33.94;100692.69;5056109;28;20111;-49
2021/04/17 08:06:30;;;;;;;2.60;2.20;;;13.70;45.70;;;12.31;35.07;100716.78;5065841;28;20044;-52
2021/04/17 08:08:59;;;;;;;2.22;2.03;;;13.00;46.50;;;12.59;34.72;100697.44;5064806;28;20040;-52
2021/04/17 08:11:29;;;;;;;3.53;2.30;;;13.00;47.00;;;12.50;34.65;100694.91;5066303;28;20113;-48
2021/04/17 08:13:56;;;;;;;2.88;2.55;;;13.10;46.50;;;12.38;34.93;100693.50;5067260;28;20028;-52
2021/04/17 08:16:22;;;;;;;2.55;1.83;;;12.90;46.90;;;12.50;34.91;100682.66;5066082;28;20032;-47
2021/04/17 08:18:48;;;;;;;2.83;1.58;;;13.00;46.80;;;12.47;35.28;100692.59;5066957;28;20059;-50
2021/04/17 08:21:18;;;;;;;2.85;1.90;;;13.00;47.00;;;12.67;34.62;100690.63;5068813;28;20024;-48
2021/04/17 08:23:48;;;;;;;2.90;2.53;;;13.10;46.70;;;13.26;34.57;100682.00;5068958;28;20035;-50
2021/04/17 08:26:16;;;;;;;2.45;2.25;;;13.40;47.40;;;13.52;33.31;100680.16;5069313;28;20075;-51
2021/04/17 08:28:49;;;;;;;2.25;1.60;;;13.90;45.60;;;13.63;33.12;100670.38;5050604;28;20127;-50
2021/04/17 08:31:37;;;;;;;2.75;1.85;;;14.00;45.40;;;13.93;33.06;100668.00;5069145;28;20029;-50
2021/04/17 08:34:20;;;;;;;2.75;1.70;;;14.30;46.30;;;13.62;32.96;100674.81;5068107;28;20067;-51
2021/04/17 08:37:03;;;;;;;2.58;2.10;;;14.40;45.10;;;13.39;32.94;100664.06;5069808;28;20048;-48
2021/04/17 08:39:35;;;;;;;2.50;2.25;;;14.00;45.10;;;12.99;33.26;100662.06;5068674;28;20148;-50
2021/04/17 08:42:15;;;;;;;4.93;2.10;;;13.60;45.40;;;12.92;34.63;100656.63;5069510;28;20446;-48
2021/04/17 08:44:46;;;;;;;2.88;1.73;;;13.40;46.60;;;13.45;33.20;100641.69;5067491;28;20055;-52
2021/04/17 08:47:35;;;;;;;2.65;1.50;;;13.60;46.00;;;13.69;32.90;100652.25;5050886;28;20028;-51
2021/04/17 08:50:28;;;;;;;3.83;1.77;;;14.00;45.70;;;13.89;32.43;100644.91;5049029;28;20090;-46
2021/04/17 08:53:09;;;;;;;5.03;1.65;;;14.20;44.80;;;13.53;32.38;100639.91;5060701;28;20052;-48
2021/04/17 08:55:38;;;;;;;2.50;1.92;;;14.00;44.60;;;13.77;32.38;100652.25;5067871;28;20074;-50
2021/04/17 08:58:17;;;;;;;3.13;1.50;;;14.10;45.00;;;13.71;31.73;100626.69;5067398;28;20109;-46
2021/04/17 09:01:06;;;;;;;2.58;1.60;;;14.10;44.20;;;14.49;31.52;100636.75;5070285;28;20056;-46
2021/04/17 09:03:39;;;;;;;2.42;1.58;;;14.60;44.70;;;14.43;30.79;100605.97;5055837;28;20059;-47
2021/04/17 09:06:28;;;;;;;1.55;1.27;;;14.90;43.70;;;13.29;32.38;100640.66;5066648;28;20032;-50
2021/04/17 09:09:15;;;;;;;2.17;1.58;;;14.10;44.00;;;13.79;32.51;100620.66;5063416;28;20076;-46
2021/04/17 09:11:43;;;;;;;4.10;1.85;;;14.00;45.40;;;14.54;31.35;100613.50;5069590;28;20086;-48
2021/04/17 09:14:28;;;;;;;3.33;1.95;;;14.60;44.40;;;15.24;30.87;100605.69;5066453;28;20391;-47
2021/04/17 09:16:56;;;;;;;1.45;1.15;;;15.30;44.20;;;15.13;30.47;100603.44;5067394;28;20484;-50
2021/04/17 09:19:48;;;;;;;2.63;1.48;;;15.50;42.90;;;15.23;30.20;100614.56;5067968;28;20048;-48
2021/04/17 09:22:33;;;;;;;3.00;1.25;;;15.70;42.80;;;14.29;31.27;100608.22;5060842;28;20106;-47
2021/04/17 09:25:07;;;;;;;3.30;1.13;;;15.00;43.10;;;13.93;31.49;100601.69;5067146;28;20292;-50
2021/04/17 09:27:37;;;;;;;4.20;1.10;;;14.80;42.90;;;14.04;31.27;100606.63;5068894;28;20098;-48
2021/04/17 09:30:15;;;;;;;2.22;1.00;;;14.70;43.50;;;13.50;32.57;100587.06;5066119;28;20036;-46
2021/04/17 09:32:53;;;;;;;2.13;1.40;;;14.20;44.20;;;14.11;31.14;100594.50;5066654;28;20047;-45
2021/04/17 09:35:21;;;;;;;2.58;1.02;;;14.40;43.90;;;14.03;32.14;100583.19;5067442;28;20252;-50
2021/04/17 09:38:14;;;;;;;2.53;1.17;;;14.40;44.80;;;14.20;31.24;100587.44;5067812;28;20025;-49
2021/04/17 09:40:52;;;;;;;2.60;1.10;;;14.50;44.30;;;15.22;30.59;100578.81;5066004;28;20056;-50
2021/04/17 09:43:29;;;;;;;2.53;1.25;;;15.10;44.40;;;15.04;31.20;100567.75;5068538;28;20032;-45
2021/04/17 09:46:00;;;;;;;1.10;0.70;;;15.40;44.00;;;15.26;30.91;100572.22;5068648;28;20154;-50
2021/04/17 09:48:37;;;;;;;2.67;0.85;;;15.50;43.70;;;15.98;30.17;100571.94;5048306;28;20115;-46
2021/04/17 09:51:03;;;;;;;2.17;0.88;;;16.10;43.70;;;15.31;29.82;100567.28;5069154;28;20104;-47
2021/04/17 09:53:30;;;;;;;2.65;1.17;;;16.00;41.70;;;15.87;29.90;100563.50;5063090;28;20032;-46
2021/04/17 09:56:03;;;;;;;5.03;1.17;;;15.90;42.80;;;16.55;28.05;100554.59;5067993;28;20055;-45
2021/04/17 09:58:32;;;;;;;1.58;0.80;;;16.70;41.70;;;16.64;29.58;100552.75;5067104;28;20044;-55
2021/04/17 10:01:14;;;;;;;1.30;0.80;;;16.80;42.50;;;17.15;28.54;100544.88;5067670;28;20120;-51
2021/04/17 10:03:42;;;;;;;3.95;0.82;;;17.30;41.90;;;17.39;28.39;100533.19;5068533;28;20261;-51
2021/04/17 10:06:32;;;;;;;1.85;1.00;;;17.60;41.10;;;17.36;27.50;100539.66;5066644;28;20095;-49
2021/04/17 10:09:19;;;;;;;2.65;0.70;;;17.70;40.70;;;17.22;26.70;100535.22;5066119;28;20507;-47
2021/04/17 10:11:45;;;;;;;;;;;17.70;39.90;;;16.89;26.98;100538.31;5062270;28;20048;-51
2021/04/17 10:14:14;;;;;;;5.68;3.25;;;17.40;39.40;;;16.92;28.90;100524.78;5064713;28;19924;-50
2021/04/17 10:16:46;;;;;;;4.85;2.78;;;17.50;41.40;;;16.48;28.81;100519.53;5066413;28;20865;-54
2021/04/17 10:19:18;;;;;;;1.95;1.35;;;17.20;41.10;;;16.36;27.85;100507.00;5068331;28;20122;-50
2021/04/17 10:21:53;;;;;;;2.08;1.60;;;17.00;40.20;;;16.49;28.67;100530.88;5065515;28;20032;-53
2021/04/17 10:24:31;;;;;;;1.05;0.68;;;17.10;41.00;;;15.50;29.60;100527.47;5067133;28;20034;-50
2021/04/17 10:27:09;;;;;;;3.22;0.85;;;16.30;41.10;;;15.63;29.96;100515.56;5067819;28;20123;-52
2021/04/17 10:29:44;;;;;;;1.77;0.60;;;16.30;41.90;;;16.56;28.64;100511.53;5068216;28;20123;-51
2021/04/17 10:32:10;;;;;;;0.82;0.40;;;16.80;41.50;;;16.56;28.21;100508.09;5067339;28;20052;-54